Homer, Ohio
Current Conditions -  °F | °C
As of 3:16 PM on Thursday 29 Jan 2015 (Local Time) from K4I3 Reporting Station
Broken Clouds Broken Clouds  
Wind Chill: 34°   Ceiling: 1600
Heat Index: 39°   Visibility: 7mi
Dew Point: 34°   Wind: 7mph
Humidity: 81%   Direction: 200°SSW
Pressure: 29.75"   Gusts: NA
Location:  40.25°N, 82.51°W
Report Text: K4I3 292016Z AUTO 20006KT 7SM SCT008 BKN016 BKN025 04/01 A2975 RMK AO2
Loading
Personal Weather Stations






























Interactive Weather Map New forecast layout! Learn more

10-Day Weather Forecast

Advertisements
Track Severe Weather on mobile